sensor_id;sensor_type;location;lat;lon;timestamp;P1;durP1;ratioP1;P2;durP2;ratioP2
76155;SDS011;64906;51.290;7.348;2023-09-19T00:01:42;5.05;;;2.00;;
76155;SDS011;64906;51.290;7.348;2023-09-19T00:04:14;5.65;;;2.10;;
76155;SDS011;64906;51.290;7.348;2023-09-19T00:06:39;5.75;;;2.10;;
76155;SDS011;64906;51.290;7.348;2023-09-19T00:09:05;7.63;;;2.13;;
76155;SDS011;64906;51.290;7.348;2023-09-19T00:11:35;4.65;;;2.10;;
76155;SDS011;64906;51.290;7.348;2023-09-19T00:14:00;5.93;;;2.20;;
76155;SDS011;64906;51.290;7.348;2023-09-19T00:16:26;6.47;;;2.25;;
76155;SDS011;64906;51.290;7.348;2023-09-19T00:18:52;7.60;;;2.08;;
76155;SDS011;64906;51.290;7.348;2023-09-19T00:21:17;5.70;;;1.88;;
76155;SDS011;64906;51.290;7.348;2023-09-19T00:23:45;7.18;;;2.28;;
76155;SDS011;64906;51.290;7.348;2023-09-19T00:26:10;6.73;;;2.13;;
76155;SDS011;64906;51.290;7.348;2023-09-19T00:28:36;5.87;;;2.00;;
76155;SDS011;64906;51.290;7.348;2023-09-19T00:31:01;5.10;;;1.98;;
76155;SDS011;64906;51.290;7.348;2023-09-19T00:33:27;5.88;;;1.90;;
76155;SDS011;64906;51.290;7.348;2023-09-19T00:35:54;5.70;;;2.00;;
76155;SDS011;64906;51.290;7.348;2023-09-19T00:38:21;5.38;;;2.10;;
76155;SDS011;64906;51.290;7.348;2023-09-19T00:40:52;7.22;;;2.00;;
76155;SDS011;64906;51.290;7.348;2023-09-19T00:43:18;5.32;;;1.80;;
76155;SDS011;64906;51.290;7.348;2023-09-19T00:45:44;9.73;;;1.90;;
76155;SDS011;64906;51.290;7.348;2023-09-19T00:48:13;7.45;;;2.17;;
76155;SDS011;64906;51.290;7.348;2023-09-19T00:50:39;6.32;;;2.22;;
76155;SDS011;64906;51.290;7.348;2023-09-19T00:53:07;9.05;;;1.90;;
76155;SDS011;64906;51.290;7.348;2023-09-19T00:55:34;7.93;;;1.90;;
76155;SDS011;64906;51.290;7.348;2023-09-19T00:58:02;7.47;;;2.20;;
76155;SDS011;64906;51.290;7.348;2023-09-19T01:00:27;7.35;;;2.10;;
76155;SDS011;64906;51.290;7.348;2023-09-19T01:02:53;5.10;;;1.58;;
76155;SDS011;64906;51.290;7.348;2023-09-19T01:05:19;8.27;;;2.50;;
76155;SDS011;64906;51.290;7.348;2023-09-19T01:07:44;7.43;;;2.07;;
76155;SDS011;64906;51.290;7.348;2023-09-19T01:10:11;5.63;;;1.73;;
76155;SDS011;64906;51.290;7.348;2023-09-19T01:15:14;6.53;;;2.00;;
76155;SDS011;64906;51.290;7.348;2023-09-19T01:17:57;7.60;;;1.98;;
76155;SDS011;64906;51.290;7.348;2023-09-19T01:20:33;6.32;;;1.92;;
76155;SDS011;64906;51.290;7.348;2023-09-19T01:29:13;6.68;;;1.90;;
76155;SDS011;64906;51.290;7.348;2023-09-19T01:31:54;6.97;;;1.92;;
76155;SDS011;64906;51.290;7.348;2023-09-19T01:34:26;6.90;;;1.90;;
76155;SDS011;64906;51.290;7.348;2023-09-19T01:36:51;8.95;;;2.40;;
76155;SDS011;64906;51.290;7.348;2023-09-19T01:39:17;7.63;;;2.03;;
76155;SDS011;64906;51.290;7.348;2023-09-19T01:41:57;6.95;;;1.88;;
76155;SDS011;64906;51.290;7.348;2023-09-19T01:49:33;7.07;;;1.95;;
76155;SDS011;64906;51.290;7.348;2023-09-19T01:52:14;6.97;;;2.05;;
76155;SDS011;64906;51.290;7.348;2023-09-19T01:54:55;5.93;;;1.63;;
76155;SDS011;64906;51.290;7.348;2023-09-19T01:57:32;10.55;;;1.92;;
76155;SDS011;64906;51.290;7.348;2023-09-19T02:00:09;7.50;;;2.15;;
76155;SDS011;64906;51.290;7.348;2023-09-19T02:02:37;6.95;;;1.63;;
76155;SDS011;64906;51.290;7.348;2023-09-19T02:05:04;8.40;;;2.00;;
76155;SDS011;64906;51.290;7.348;2023-09-19T02:07:31;7.13;;;1.85;;
76155;SDS011;64906;51.290;7.348;2023-09-19T02:09:57;8.30;;;1.88;;
76155;SDS011;64906;51.290;7.348;2023-09-19T02:12:24;8.93;;;1.98;;
76155;SDS011;64906;51.290;7.348;2023-09-19T02:14:50;8.73;;;1.77;;
76155;SDS011;64906;51.290;7.348;2023-09-19T02:17:15;5.73;;;1.60;;
76155;SDS011;64906;51.290;7.348;2023-09-19T02:19:42;6.85;;;1.73;;
76155;SDS011;64906;51.290;7.348;2023-09-19T02:22:07;6.60;;;1.77;;
76155;SDS011;64906;51.290;7.348;2023-09-19T02:24:35;7.03;;;1.92;;
76155;SDS011;64906;51.290;7.348;2023-09-19T02:27:04;8.40;;;2.20;;
76155;SDS011;64906;51.290;7.348;2023-09-19T02:29:30;8.20;;;1.83;;
76155;SDS011;64906;51.290;7.348;2023-09-19T02:31:55;7.32;;;1.88;;
76155;SDS011;64906;51.290;7.348;2023-09-19T02:34:21;6.57;;;1.73;;
76155;SDS011;64906;51.290;7.348;2023-09-19T02:36:46;5.97;;;1.73;;
76155;SDS011;64906;51.290;7.348;2023-09-19T02:39:12;7.97;;;2.05;;
76155;SDS011;64906;51.290;7.348;2023-09-19T02:41:37;7.90;;;1.80;;
76155;SDS011;64906;51.290;7.348;2023-09-19T02:44:03;6.77;;;1.57;;
76155;SDS011;64906;51.290;7.348;2023-09-19T02:46:32;5.97;;;1.73;;
76155;SDS011;64906;51.290;7.348;2023-09-19T02:48:57;7.03;;;1.75;;
76155;SDS011;64906;51.290;7.348;2023-09-19T02:51:23;6.88;;;1.73;;
76155;SDS011;64906;51.290;7.348;2023-09-19T02:53:49;7.80;;;2.20;;
76155;SDS011;64906;51.290;7.348;2023-09-19T02:56:17;5.85;;;1.60;;
76155;SDS011;64906;51.290;7.348;2023-09-19T02:58:43;7.57;;;1.67;;
76155;SDS011;64906;51.290;7.348;2023-09-19T03:01:09;9.75;;;1.85;;
76155;SDS011;64906;51.290;7.348;2023-09-19T03:03:38;7.20;;;1.83;;
76155;SDS011;64906;51.290;7.348;2023-09-19T03:06:07;5.47;;;1.70;;
76155;SDS011;64906;51.290;7.348;2023-09-19T03:08:37;5.78;;;1.80;;
76155;SDS011;64906;51.290;7.348;2023-09-19T03:11:04;6.82;;;1.80;;
76155;SDS011;64906;51.290;7.348;2023-09-19T03:13:31;6.00;;;1.55;;
76155;SDS011;64906;51.290;7.348;2023-09-19T03:15:57;5.10;;;1.42;;
76155;SDS011;64906;51.290;7.348;2023-09-19T03:18:23;6.20;;;1.88;;
76155;SDS011;64906;51.290;7.348;2023-09-19T03:20:54;4.85;;;1.52;;
76155;SDS011;64906;51.290;7.348;2023-09-19T03:23:21;7.25;;;1.70;;
76155;SDS011;64906;51.290;7.348;2023-09-19T03:25:46;8.23;;;2.30;;
76155;SDS011;64906;51.290;7.348;2023-09-19T03:28:12;6.13;;;1.60;;
76155;SDS011;64906;51.290;7.348;2023-09-19T03:30:38;5.35;;;1.50;;
76155;SDS011;64906;51.290;7.348;2023-09-19T03:33:03;8.80;;;2.10;;
76155;SDS011;64906;51.290;7.348;2023-09-19T03:35:29;7.57;;;1.60;;
76155;SDS011;64906;51.290;7.348;2023-09-19T03:37:55;6.75;;;1.75;;
76155;SDS011;64906;51.290;7.348;2023-09-19T03:40:20;7.03;;;1.73;;
76155;SDS011;64906;51.290;7.348;2023-09-19T03:42:48;10.15;;;1.73;;
76155;SDS011;64906;51.290;7.348;2023-09-19T03:45:13;6.78;;;2.00;;
76155;SDS011;64906;51.290;7.348;2023-09-19T03:47:41;9.32;;;1.65;;
76155;SDS011;64906;51.290;7.348;2023-09-19T03:50:06;7.95;;;1.73;;
76155;SDS011;64906;51.290;7.348;2023-09-19T03:52:33;6.72;;;1.83;;
76155;SDS011;64906;51.290;7.348;2023-09-19T03:54:59;6.55;;;1.83;;
76155;SDS011;64906;51.290;7.348;2023-09-19T03:57:25;6.85;;;1.52;;
76155;SDS011;64906;51.290;7.348;2023-09-19T03:59:50;11.27;;;2.13;;
76155;SDS011;64906;51.290;7.348;2023-09-19T04:02:18;7.13;;;1.73;;
76155;SDS011;64906;51.290;7.348;2023-09-19T04:04:52;8.20;;;1.70;;
76155;SDS011;64906;51.290;7.348;2023-09-19T04:07:18;7.18;;;1.55;;
76155;SDS011;64906;51.290;7.348;2023-09-19T04:09:47;6.82;;;1.73;;
76155;SDS011;64906;51.290;7.348;2023-09-19T04:12:14;6.90;;;1.60;;
76155;SDS011;64906;51.290;7.348;2023-09-19T04:14:41;9.57;;;1.67;;
76155;SDS011;64906;51.290;7.348;2023-09-19T04:17:07;6.65;;;1.50;;
76155;SDS011;64906;51.290;7.348;2023-09-19T04:19:32;7.47;;;1.60;;
76155;SDS011;64906;51.290;7.348;2023-09-19T04:21:57;10.57;;;1.90;;
76155;SDS011;64906;51.290;7.348;2023-09-19T04:24:23;8.57;;;1.50;;
76155;SDS011;64906;51.290;7.348;2023-09-19T04:26:48;7.33;;;1.70;;
76155;SDS011;64906;51.290;7.348;2023-09-19T04:29:13;5.25;;;1.48;;
76155;SDS011;64906;51.290;7.348;2023-09-19T04:31:39;8.38;;;1.73;;
76155;SDS011;64906;51.290;7.348;2023-09-19T04:34:05;8.10;;;1.73;;
76155;SDS011;64906;51.290;7.348;2023-09-19T04:36:30;7.90;;;1.88;;
76155;SDS011;64906;51.290;7.348;2023-09-19T04:38:56;7.87;;;1.43;;
76155;SDS011;64906;51.290;7.348;2023-09-19T04:41:21;7.73;;;1.40;;
76155;SDS011;64906;51.290;7.348;2023-09-19T04:43:47;9.52;;;1.60;;
76155;SDS011;64906;51.290;7.348;2023-09-19T04:46:14;6.65;;;1.60;;
76155;SDS011;64906;51.290;7.348;2023-09-19T04:48:40;7.20;;;1.88;;
76155;SDS011;64906;51.290;7.348;2023-09-19T04:51:06;7.88;;;1.67;;
76155;SDS011;64906;51.290;7.348;2023-09-19T04:53:32;6.68;;;1.60;;
76155;SDS011;64906;51.290;7.348;2023-09-19T04:55:57;6.40;;;1.60;;
76155;SDS011;64906;51.290;7.348;2023-09-19T04:58:23;6.63;;;1.40;;
76155;SDS011;64906;51.290;7.348;2023-09-19T05:00:48;9.07;;;1.92;;
76155;SDS011;64906;51.290;7.348;2023-09-19T05:03:16;7.25;;;1.67;;
76155;SDS011;64906;51.290;7.348;2023-09-19T05:05:42;6.18;;;1.63;;
76155;SDS011;64906;51.290;7.348;2023-09-19T05:08:07;9.25;;;2.33;;
76155;SDS011;64906;51.290;7.348;2023-09-19T05:10:34;7.97;;;1.75;;
76155;SDS011;64906;51.290;7.348;2023-09-19T05:13:02;8.73;;;1.80;;
76155;SDS011;64906;51.290;7.348;2023-09-19T05:15:29;6.93;;;1.38;;
76155;SDS011;64906;51.290;7.348;2023-09-19T05:17:55;6.80;;;1.40;;
76155;SDS011;64906;51.290;7.348;2023-09-19T05:20:20;6.60;;;1.67;;
76155;SDS011;64906;51.290;7.348;2023-09-19T05:23:06;9.57;;;1.90;;
76155;SDS011;64906;51.290;7.348;2023-09-19T05:25:36;7.28;;;1.98;;
76155;SDS011;64906;51.290;7.348;2023-09-19T05:28:03;11.13;;;2.10;;
76155;SDS011;64906;51.290;7.348;2023-09-19T05:30:28;6.30;;;1.50;;
76155;SDS011;64906;51.290;7.348;2023-09-19T05:32:54;6.03;;;1.50;;
76155;SDS011;64906;51.290;7.348;2023-09-19T05:35:20;7.70;;;1.60;;
76155;SDS011;64906;51.290;7.348;2023-09-19T05:37:46;7.20;;;1.50;;
76155;SDS011;64906;51.290;7.348;2023-09-19T05:40:14;7.47;;;1.88;;
76155;SDS011;64906;51.290;7.348;2023-09-19T05:42:41;8.10;;;1.63;;
76155;SDS011;64906;51.290;7.348;2023-09-19T05:45:06;8.25;;;1.65;;
76155;SDS011;64906;51.290;7.348;2023-09-19T05:47:32;6.57;;;1.58;;
76155;SDS011;64906;51.290;7.348;2023-09-19T05:49:57;8.90;;;1.80;;
76155;SDS011;64906;51.290;7.348;2023-09-19T05:52:24;7.10;;;1.50;;
76155;SDS011;64906;51.290;7.348;2023-09-19T05:54:49;5.50;;;1.77;;
76155;SDS011;64906;51.290;7.348;2023-09-19T05:57:15;10.40;;;1.92;;
76155;SDS011;64906;51.290;7.348;2023-09-19T05:59:41;9.45;;;1.80;;
76155;SDS011;64906;51.290;7.348;2023-09-19T06:02:07;8.40;;;1.80;;
76155;SDS011;64906;51.290;7.348;2023-09-19T06:04:34;8.70;;;1.77;;
76155;SDS011;64906;51.290;7.348;2023-09-19T06:07:00;7.53;;;1.83;;
76155;SDS011;64906;51.290;7.348;2023-09-19T06:09:25;6.82;;;1.85;;
76155;SDS011;64906;51.290;7.348;2023-09-19T06:11:52;7.30;;;1.85;;
76155;SDS011;64906;51.290;7.348;2023-09-19T06:14:18;12.25;;;4.03;;
76155;SDS011;64906;51.290;7.348;2023-09-19T06:16:44;13.57;;;5.03;;
76155;SDS011;64906;51.290;7.348;2023-09-19T06:19:10;16.25;;;7.47;;
76155;SDS011;64906;51.290;7.348;2023-09-19T06:21:35;18.03;;;8.53;;
76155;SDS011;64906;51.290;7.348;2023-09-19T06:24:01;19.25;;;8.50;;
76155;SDS011;64906;51.290;7.348;2023-09-19T06:26:27;23.40;;;10.65;;
76155;SDS011;64906;51.290;7.348;2023-09-19T06:28:54;22.35;;;11.05;;
76155;SDS011;64906;51.290;7.348;2023-09-19T06:31:20;22.45;;;11.15;;
76155;SDS011;64906;51.290;7.348;2023-09-19T06:33:47;24.05;;;10.55;;
76155;SDS011;64906;51.290;7.348;2023-09-19T06:36:13;22.95;;;10.45;;
76155;SDS011;64906;51.290;7.348;2023-09-19T06:38:39;23.50;;;10.63;;
76155;SDS011;64906;51.290;7.348;2023-09-19T06:41:06;25.63;;;10.38;;
76155;SDS011;64906;51.290;7.348;2023-09-19T06:43:32;24.25;;;9.98;;
76155;SDS011;64906;51.290;7.348;2023-09-19T06:45:59;20.98;;;9.48;;
76155;SDS011;64906;51.290;7.348;2023-09-19T06:48:25;21.20;;;9.65;;
76155;SDS011;64906;51.290;7.348;2023-09-19T06:50:52;24.00;;;9.45;;
76155;SDS011;64906;51.290;7.348;2023-09-19T06:53:18;21.38;;;8.68;;
76155;SDS011;64906;51.290;7.348;2023-09-19T06:55:43;18.45;;;8.55;;
76155;SDS011;64906;51.290;7.348;2023-09-19T06:58:09;20.92;;;8.73;;
76155;SDS011;64906;51.290;7.348;2023-09-19T07:00:35;21.58;;;10.02;;
76155;SDS011;64906;51.290;7.348;2023-09-19T07:03:05;24.63;;;10.93;;
76155;SDS011;64906;51.290;7.348;2023-09-19T07:05:36;23.02;;;11.05;;
76155;SDS011;64906;51.290;7.348;2023-09-19T07:08:04;22.10;;;10.52;;
76155;SDS011;64906;51.290;7.348;2023-09-19T07:10:31;24.48;;;10.30;;
76155;SDS011;64906;51.290;7.348;2023-09-19T07:13:00;21.75;;;10.10;;
76155;SDS011;64906;51.290;7.348;2023-09-19T07:15:28;24.20;;;10.27;;
76155;SDS011;64906;51.290;7.348;2023-09-19T07:17:55;20.40;;;9.23;;
76155;SDS011;64906;51.290;7.348;2023-09-19T07:20:21;16.85;;;8.68;;
76155;SDS011;64906;51.290;7.348;2023-09-19T07:22:51;18.02;;;8.18;;
76155;SDS011;64906;51.290;7.348;2023-09-19T07:25:16;18.73;;;8.35;;
76155;SDS011;64906;51.290;7.348;2023-09-19T07:27:42;17.52;;;8.48;;
76155;SDS011;64906;51.290;7.348;2023-09-19T07:30:07;21.48;;;8.07;;
76155;SDS011;64906;51.290;7.348;2023-09-19T07:32:33;14.25;;;7.22;;
76155;SDS011;64906;51.290;7.348;2023-09-19T07:35:01;20.42;;;7.97;;
76155;SDS011;64906;51.290;7.348;2023-09-19T07:37:28;20.35;;;7.82;;
76155;SDS011;64906;51.290;7.348;2023-09-19T07:39:56;17.10;;;7.07;;
76155;SDS011;64906;51.290;7.348;2023-09-19T07:42:21;16.17;;;6.88;;
76155;SDS011;64906;51.290;7.348;2023-09-19T07:44:47;14.48;;;6.35;;
76155;SDS011;64906;51.290;7.348;2023-09-19T07:47:15;19.38;;;6.80;;
76155;SDS011;64906;51.290;7.348;2023-09-19T07:49:41;18.83;;;6.78;;
76155;SDS011;64906;51.290;7.348;2023-09-19T07:52:07;14.80;;;5.85;;
76155;SDS011;64906;51.290;7.348;2023-09-19T07:54:33;13.57;;;5.63;;
76155;SDS011;64906;51.290;7.348;2023-09-19T07:57:00;14.75;;;5.78;;
76155;SDS011;64906;51.290;7.348;2023-09-19T07:59:26;15.27;;;5.65;;
76155;SDS011;64906;51.290;7.348;2023-09-19T08:01:52;17.10;;;6.07;;
76155;SDS011;64906;51.290;7.348;2023-09-19T08:04:17;13.13;;;4.93;;
76155;SDS011;64906;51.290;7.348;2023-09-19T08:06:44;19.35;;;5.53;;
76155;SDS011;64906;51.290;7.348;2023-09-19T08:09:10;15.13;;;4.80;;
76155;SDS011;64906;51.290;7.348;2023-09-19T08:11:36;9.65;;;3.92;;
76155;SDS011;64906;51.290;7.348;2023-09-19T08:14:01;16.97;;;5.17;;
76155;SDS011;64906;51.290;7.348;2023-09-19T08:16:27;12.88;;;4.03;;
76155;SDS011;64906;51.290;7.348;2023-09-19T08:18:52;12.88;;;4.00;;
76155;SDS011;64906;51.290;7.348;2023-09-19T08:21:19;11.25;;;3.85;;
76155;SDS011;64906;51.290;7.348;2023-09-19T08:23:45;14.45;;;3.78;;
76155;SDS011;64906;51.290;7.348;2023-09-19T08:26:10;11.70;;;3.80;;
76155;SDS011;64906;51.290;7.348;2023-09-19T08:28:36;15.33;;;3.97;;
76155;SDS011;64906;51.290;7.348;2023-09-19T08:31:05;13.63;;;3.55;;
76155;SDS011;64906;51.290;7.348;2023-09-19T08:36:05;11.35;;;3.30;;
76155;SDS011;64906;51.290;7.348;2023-09-19T08:38:33;15.75;;;3.00;;
76155;SDS011;64906;51.290;7.348;2023-09-19T08:41:00;11.95;;;3.30;;
76155;SDS011;64906;51.290;7.348;2023-09-19T08:43:29;15.73;;;4.45;;
76155;SDS011;64906;51.290;7.348;2023-09-19T08:46:02;38.35;;;18.95;;
76155;SDS011;64906;51.290;7.348;2023-09-19T08:48:34;40.08;;;20.45;;
76155;SDS011;64906;51.290;7.348;2023-09-19T08:51:06;42.13;;;24.15;;
76155;SDS011;64906;51.290;7.348;2023-09-19T08:53:40;51.80;;;30.38;;
76155;SDS011;64906;51.290;7.348;2023-09-19T08:56:25;56.65;;;29.65;;
76155;SDS011;64906;51.290;7.348;2023-09-19T08:58:57;49.28;;;28.90;;
76155;SDS011;64906;51.290;7.348;2023-09-19T09:01:27;55.95;;;31.17;;
76155;SDS011;64906;51.290;7.348;2023-09-19T09:03:54;54.33;;;29.42;;
76155;SDS011;64906;51.290;7.348;2023-09-19T09:06:21;47.28;;;28.02;;
76155;SDS011;64906;51.290;7.348;2023-09-19T09:08:48;52.85;;;31.08;;
76155;SDS011;64906;51.290;7.348;2023-09-19T09:11:15;50.00;;;26.75;;
76155;SDS011;64906;51.290;7.348;2023-09-19T09:13:42;55.28;;;31.55;;
76155;SDS011;64906;51.290;7.348;2023-09-19T09:16:09;53.17;;;30.17;;
76155;SDS011;64906;51.290;7.348;2023-09-19T09:18:35;52.72;;;28.17;;
76155;SDS011;64906;51.290;7.348;2023-09-19T09:21:01;45.33;;;23.58;;
76155;SDS011;64906;51.290;7.348;2023-09-19T09:23:27;36.23;;;21.30;;
76155;SDS011;64906;51.290;7.348;2023-09-19T09:25:57;38.25;;;20.85;;
76155;SDS011;64906;51.290;7.348;2023-09-19T09:28:27;40.40;;;20.73;;
76155;SDS011;64906;51.290;7.348;2023-09-19T09:30:54;34.72;;;19.00;;
76155;SDS011;64906;51.290;7.348;2023-09-19T09:33:20;34.58;;;18.58;;
76155;SDS011;64906;51.290;7.348;2023-09-19T09:35:56;34.35;;;17.73;;
76155;SDS011;64906;51.290;7.348;2023-09-19T09:38:23;30.95;;;16.85;;
76155;SDS011;64906;51.290;7.348;2023-09-19T09:40:52;31.92;;;16.50;;
76155;SDS011;64906;51.290;7.348;2023-09-19T09:43:25;29.85;;;16.20;;
76155;SDS011;64906;51.290;7.348;2023-09-19T09:46:05;27.33;;;14.45;;
76155;SDS011;64906;51.290;7.348;2023-09-19T09:48:35;26.80;;;13.05;;
76155;SDS011;64906;51.290;7.348;2023-09-19T09:51:04;25.23;;;12.73;;
76155;SDS011;64906;51.290;7.348;2023-09-19T09:53:32;26.35;;;12.55;;
76155;SDS011;64906;51.290;7.348;2023-09-19T09:56:05;22.33;;;11.15;;
76155;SDS011;64906;51.290;7.348;2023-09-19T09:58:35;21.45;;;10.82;;
76155;SDS011;64906;51.290;7.348;2023-09-19T10:01:02;22.73;;;10.85;;
76155;SDS011;64906;51.290;7.348;2023-09-19T10:03:40;22.65;;;10.10;;
76155;SDS011;64906;51.290;7.348;2023-09-19T10:06:12;22.30;;;11.18;;
76155;SDS011;64906;51.290;7.348;2023-09-19T10:08:58;24.25;;;11.30;;
76155;SDS011;64906;51.290;7.348;2023-09-19T10:11:38;23.85;;;10.43;;
76155;SDS011;64906;51.290;7.348;2023-09-19T10:14:08;24.95;;;11.68;;
76155;SDS011;64906;51.290;7.348;2023-09-19T10:16:37;22.02;;;10.50;;
76155;SDS011;64906;51.290;7.348;2023-09-19T10:19:05;23.45;;;10.65;;
76155;SDS011;64906;51.290;7.348;2023-09-19T10:21:34;21.38;;;9.82;;
76155;SDS011;64906;51.290;7.348;2023-09-19T10:24:01;21.42;;;10.07;;
76155;SDS011;64906;51.290;7.348;2023-09-19T10:26:29;21.20;;;10.45;;
76155;SDS011;64906;51.290;7.348;2023-09-19T10:28:56;26.13;;;11.80;;
76155;SDS011;64906;51.290;7.348;2023-09-19T10:31:26;30.05;;;15.52;;
76155;SDS011;64906;51.290;7.348;2023-09-19T10:33:53;27.30;;;14.00;;
76155;SDS011;64906;51.290;7.348;2023-09-19T10:36:21;28.33;;;12.75;;
76155;SDS011;64906;51.290;7.348;2023-09-19T10:38:50;23.80;;;11.32;;
76155;SDS011;64906;51.290;7.348;2023-09-19T10:41:20;25.23;;;10.05;;
76155;SDS011;64906;51.290;7.348;2023-09-19T10:43:47;20.45;;;9.48;;
76155;SDS011;64906;51.290;7.348;2023-09-19T10:46:13;22.35;;;9.43;;
76155;SDS011;64906;51.290;7.348;2023-09-19T10:48:39;20.98;;;8.38;;
76155;SDS011;64906;51.290;7.348;2023-09-19T10:51:20;18.00;;;8.45;;
76155;SDS011;64906;51.290;7.348;2023-09-19T10:53:54;16.75;;;8.10;;
76155;SDS011;64906;51.290;7.348;2023-09-19T10:56:37;14.52;;;6.18;;
76155;SDS011;64906;51.290;7.348;2023-09-19T10:59:13;14.52;;;6.97;;
76155;SDS011;64906;51.290;7.348;2023-09-19T11:01:45;17.35;;;7.75;;
76155;SDS011;64906;51.290;7.348;2023-09-19T11:09:46;17.60;;;7.43;;
76155;SDS011;64906;51.290;7.348;2023-09-19T11:14:56;14.77;;;6.43;;
76155;SDS011;64906;51.290;7.348;2023-09-19T11:17:34;15.82;;;6.45;;
76155;SDS011;64906;51.290;7.348;2023-09-19T11:30:50;17.20;;;6.10;;
76155;SDS011;64906;51.290;7.348;2023-09-19T11:43:53;11.93;;;4.72;;
76155;SDS011;64906;51.290;7.348;2023-09-19T11:49:16;10.95;;;4.38;;
76155;SDS011;64906;51.290;7.348;2023-09-19T11:51:46;10.70;;;4.55;;
76155;SDS011;64906;51.290;7.348;2023-09-19T11:54:13;14.10;;;4.40;;
76155;SDS011;64906;51.290;7.348;2023-09-19T11:56:48;10.45;;;4.47;;
76155;SDS011;64906;51.290;7.348;2023-09-19T11:59:21;11.80;;;4.63;;
76155;SDS011;64906;51.290;7.348;2023-09-19T12:01:51;11.85;;;4.32;;
76155;SDS011;64906;51.290;7.348;2023-09-19T12:07:09;12.13;;;3.83;;
76155;SDS011;64906;51.290;7.348;2023-09-19T12:09:44;9.77;;;3.80;;
76155;SDS011;64906;51.290;7.348;2023-09-19T12:12:25;11.43;;;4.35;;
76155;SDS011;64906;51.290;7.348;2023-09-19T12:14:58;12.15;;;4.60;;
76155;SDS011;64906;51.290;7.348;2023-09-19T12:20:08;12.07;;;4.57;;
76155;SDS011;64906;51.290;7.348;2023-09-19T12:25:11;12.35;;;4.40;;
76155;SDS011;64906;51.290;7.348;2023-09-19T12:27:43;10.82;;;3.83;;
76155;SDS011;64906;51.290;7.348;2023-09-19T12:30:11;9.55;;;4.15;;
76155;SDS011;64906;51.290;7.348;2023-09-19T12:32:39;10.30;;;4.28;;
76155;SDS011;64906;51.290;7.348;2023-09-19T12:35:06;10.45;;;4.28;;
76155;SDS011;64906;51.290;7.348;2023-09-19T12:37:42;10.88;;;3.85;;
76155;SDS011;64906;51.290;7.348;2023-09-19T12:40:13;12.38;;;4.07;;
76155;SDS011;64906;51.290;7.348;2023-09-19T12:42:47;8.20;;;3.65;;
76155;SDS011;64906;51.290;7.348;2023-09-19T12:45:14;12.77;;;3.92;;
76155;SDS011;64906;51.290;7.348;2023-09-19T12:48:17;12.48;;;3.88;;
76155;SDS011;64906;51.290;7.348;2023-09-19T12:51:08;12.65;;;3.83;;
76155;SDS011;64906;51.290;7.348;2023-09-19T12:56:08;10.18;;;3.88;;
76155;SDS011;64906;51.290;7.348;2023-09-19T12:58:51;10.20;;;3.28;;
76155;SDS011;64906;51.290;7.348;2023-09-19T13:01:26;11.13;;;3.60;;
76155;SDS011;64906;51.290;7.348;2023-09-19T13:06:40;8.57;;;3.60;;
76155;SDS011;64906;51.290;7.348;2023-09-19T13:09:08;9.13;;;4.13;;
76155;SDS011;64906;51.290;7.348;2023-09-19T13:11:38;12.55;;;5.22;;
76155;SDS011;64906;51.290;7.348;2023-09-19T13:14:24;10.85;;;4.35;;
76155;SDS011;64906;51.290;7.348;2023-09-19T13:16:57;10.15;;;4.07;;
76155;SDS011;64906;51.290;7.348;2023-09-19T13:19:49;8.30;;;3.80;;
76155;SDS011;64906;51.290;7.348;2023-09-19T13:25:08;12.10;;;3.75;;
76155;SDS011;64906;51.290;7.348;2023-09-19T13:27:39;10.13;;;4.20;;
76155;SDS011;64906;51.290;7.348;2023-09-19T13:30:06;9.23;;;4.10;;
76155;SDS011;64906;51.290;7.348;2023-09-19T13:32:32;10.15;;;4.15;;
76155;SDS011;64906;51.290;7.348;2023-09-19T13:34:58;10.50;;;3.72;;
76155;SDS011;64906;51.290;7.348;2023-09-19T13:37:23;10.90;;;4.03;;
76155;SDS011;64906;51.290;7.348;2023-09-19T13:39:48;9.23;;;4.47;;
76155;SDS011;64906;51.290;7.348;2023-09-19T13:42:14;12.43;;;6.57;;
76155;SDS011;64906;51.290;7.348;2023-09-19T13:44:41;14.52;;;6.15;;
76155;SDS011;64906;51.290;7.348;2023-09-19T13:47:06;14.40;;;7.60;;
76155;SDS011;64906;51.290;7.348;2023-09-19T13:49:34;15.00;;;6.68;;
76155;SDS011;64906;51.290;7.348;2023-09-19T13:52:00;10.75;;;5.55;;
76155;SDS011;64906;51.290;7.348;2023-09-19T13:54:28;11.88;;;5.60;;
76155;SDS011;64906;51.290;7.348;2023-09-19T13:56:54;12.40;;;5.22;;
76155;SDS011;64906;51.290;7.348;2023-09-19T13:59:19;12.60;;;5.03;;
76155;SDS011;64906;51.290;7.348;2023-09-19T14:01:48;13.10;;;5.60;;
76155;SDS011;64906;51.290;7.348;2023-09-19T14:04:13;13.20;;;5.30;;
76155;SDS011;64906;51.290;7.348;2023-09-19T14:06:41;15.82;;;7.40;;
76155;SDS011;64906;51.290;7.348;2023-09-19T14:09:06;22.20;;;12.25;;
76155;SDS011;64906;51.290;7.348;2023-09-19T14:11:32;33.03;;;22.15;;
76155;SDS011;64906;51.290;7.348;2023-09-19T14:13:58;44.47;;;29.13;;
76155;SDS011;64906;51.290;7.348;2023-09-19T14:16:24;50.40;;;33.15;;
76155;SDS011;64906;51.290;7.348;2023-09-19T14:18:49;65.05;;;40.83;;
76155;SDS011;64906;51.290;7.348;2023-09-19T14:21:14;46.78;;;31.83;;
76155;SDS011;64906;51.290;7.348;2023-09-19T14:23:40;48.10;;;32.63;;
76155;SDS011;64906;51.290;7.348;2023-09-19T14:26:09;42.47;;;27.42;;
76155;SDS011;64906;51.290;7.348;2023-09-19T14:28:35;48.63;;;32.20;;
76155;SDS011;64906;51.290;7.348;2023-09-19T14:31:03;43.53;;;27.53;;
76155;SDS011;64906;51.290;7.348;2023-09-19T14:33:32;40.22;;;26.50;;
76155;SDS011;64906;51.290;7.348;2023-09-19T14:35:57;41.23;;;24.73;;
76155;SDS011;64906;51.290;7.348;2023-09-19T14:38:23;39.67;;;23.93;;
76155;SDS011;64906;51.290;7.348;2023-09-19T14:40:48;36.53;;;23.23;;
76155;SDS011;64906;51.290;7.348;2023-09-19T14:43:15;35.63;;;22.00;;
76155;SDS011;64906;51.290;7.348;2023-09-19T14:45:40;36.15;;;22.48;;
76155;SDS011;64906;51.290;7.348;2023-09-19T14:48:06;34.73;;;22.30;;
76155;SDS011;64906;51.290;7.348;2023-09-19T14:50:32;33.08;;;21.90;;
76155;SDS011;64906;51.290;7.348;2023-09-19T14:52:57;29.45;;;18.73;;
76155;SDS011;64906;51.290;7.348;2023-09-19T14:55:26;30.38;;;18.30;;
76155;SDS011;64906;51.290;7.348;2023-09-19T14:57:54;32.30;;;18.27;;
76155;SDS011;64906;51.290;7.348;2023-09-19T15:00:21;27.38;;;16.40;;
76155;SDS011;64906;51.290;7.348;2023-09-19T15:02:48;29.98;;;16.65;;
76155;SDS011;64906;51.290;7.348;2023-09-19T15:05:15;22.35;;;14.27;;
76155;SDS011;64906;51.290;7.348;2023-09-19T15:07:40;22.02;;;13.15;;
76155;SDS011;64906;51.290;7.348;2023-09-19T15:10:06;25.23;;;14.90;;
76155;SDS011;64906;51.290;7.348;2023-09-19T15:12:34;21.08;;;11.82;;
76155;SDS011;64906;51.290;7.348;2023-09-19T15:15:03;21.45;;;11.65;;
76155;SDS011;64906;51.290;7.348;2023-09-19T15:17:33;25.77;;;15.07;;
76155;SDS011;64906;51.290;7.348;2023-09-19T15:19:58;48.25;;;30.10;;
76155;SDS011;64906;51.290;7.348;2023-09-19T15:22:24;66.27;;;41.93;;
76155;SDS011;64906;51.290;7.348;2023-09-19T15:24:50;86.90;;;55.28;;
76155;SDS011;64906;51.290;7.348;2023-09-19T15:27:16;74.20;;;45.20;;
76155;SDS011;64906;51.290;7.348;2023-09-19T15:29:45;89.53;;;55.22;;
76155;SDS011;64906;51.290;7.348;2023-09-19T15:32:11;62.00;;;40.13;;
76155;SDS011;64906;51.290;7.348;2023-09-19T15:34:36;78.10;;;49.65;;
76155;SDS011;64906;51.290;7.348;2023-09-19T15:37:02;67.53;;;42.47;;
76155;SDS011;64906;51.290;7.348;2023-09-19T15:39:29;57.22;;;36.75;;
76155;SDS011;64906;51.290;7.348;2023-09-19T15:41:58;55.60;;;33.63;;
76155;SDS011;64906;51.290;7.348;2023-09-19T15:44:23;50.27;;;31.40;;
76155;SDS011;64906;51.290;7.348;2023-09-19T15:46:51;47.78;;;27.98;;